sensor_id;sensor_type;location;lat;lon;timestamp;pressure;altitude;pressure_sealevel;temperature;humidity
45255;BME280;30989;52.078;21.014;2023-04-03T00:01:05;164115.34;;;1.40;89.02
45255;BME280;30989;52.078;21.014;2023-04-03T00:03:30;164087.38;;;1.29;89.66
45255;BME280;30989;52.078;21.014;2023-04-03T00:05:56;164091.38;;;1.31;88.57
45255;BME280;30989;52.078;21.014;2023-04-03T00:08:22;164075.41;;;1.24;88.50
45255;BME280;30989;52.078;21.014;2023-04-03T00:10:47;164060.78;;;1.19;88.19
45255;BME280;30989;52.078;21.014;2023-04-03T00:13:14;164066.09;;;1.21;88.42
45255;BME280;30989;52.078;21.014;2023-04-03T00:15:40;164052.78;;;1.16;88.27
45255;BME280;30989;52.078;21.014;2023-04-03T00:18:06;164044.81;;;1.13;88.58
45255;BME280;30989;52.078;21.014;2023-04-03T00:20:33;164032.81;;;1.08;86.64
45255;BME280;30989;52.078;21.014;2023-04-03T00:22:58;164008.88;;;0.99;86.93
45255;BME280;30989;52.078;21.014;2023-04-03T00:25:24;164008.88;;;0.99;87.14
45255;BME280;30989;52.078;21.014;2023-04-03T00:27:49;164002.22;;;0.96;87.17
45255;BME280;30989;52.078;21.014;2023-04-03T00:30:17;163995.56;;;0.94;86.86
45255;BME280;30989;52.078;21.014;2023-04-03T00:32:43;163983.59;;;0.89;87.86
45255;BME280;30989;52.078;21.014;2023-04-03T00:35:09;163967.63;;;0.83;87.41
45255;BME280;30989;52.078;21.014;2023-04-03T00:37:36;163964.97;;;0.82;85.35
45255;BME280;30989;52.078;21.014;2023-04-03T00:40:01;163950.34;;;0.77;86.50
45255;BME280;30989;52.078;21.014;2023-04-03T00:42:28;163938.34;;;0.72;87.23
45255;BME280;30989;52.078;21.014;2023-04-03T00:47:22;163909.09;;;0.61;86.99
45255;BME280;30989;52.078;21.014;2023-04-03T00:49:49;163898.44;;;0.57;86.13
45255;BME280;30989;52.078;21.014;2023-04-03T00:52:17;163894.47;;;0.55;87.01
45255;BME280;30989;52.078;21.014;2023-04-03T00:54:45;163879.84;;;0.50;87.49
45255;BME280;30989;52.078;21.014;2023-04-03T00:57:11;163859.88;;;0.42;85.84
45255;BME280;30989;52.078;21.014;2023-04-03T00:59:47;163866.53;;;0.45;85.72
45255;BME280;30989;52.078;21.014;2023-04-03T01:02:13;163853.22;;;0.40;86.98
45255;BME280;30989;52.078;21.014;2023-04-03T01:04:42;163849.25;;;0.38;86.56
45255;BME280;30989;52.078;21.014;2023-04-03T01:07:11;163838.59;;;0.34;86.23
45255;BME280;30989;52.078;21.014;2023-04-03T01:09:38;163834.59;;;0.32;85.57
45255;BME280;30989;52.078;21.014;2023-04-03T01:12:25;163823.97;;;0.28;85.40
45255;BME280;30989;52.078;21.014;2023-04-03T01:14:58;163802.69;;;0.20;85.99
45255;BME280;30989;52.078;21.014;2023-04-03T01:22:44;163785.41;;;0.14;85.55
45255;BME280;30989;52.078;21.014;2023-04-03T01:25:15;163753.50;;;0.02;85.63
45255;BME280;30989;52.078;21.014;2023-04-03T01:27:40;163760.13;;;0.04;86.96
45255;BME280;30989;52.078;21.014;2023-04-03T01:30:06;163760.13;;;0.04;86.06
45255;BME280;30989;52.078;21.014;2023-04-03T01:32:32;163734.81;;;-0.06;85.90
45255;BME280;30989;52.078;21.014;2023-04-03T01:34:58;163738.81;;;-0.04;85.76
45255;BME280;30989;52.078;21.014;2023-04-03T01:37:23;163737.47;;;-0.05;86.04
45255;BME280;30989;52.078;21.014;2023-04-03T01:39:49;163726.84;;;-0.09;84.79
45255;BME280;30989;52.078;21.014;2023-04-03T01:42:14;163708.22;;;-0.16;84.96
45255;BME280;30989;52.078;21.014;2023-04-03T01:44:43;163706.91;;;-0.16;86.39
45255;BME280;30989;52.078;21.014;2023-04-03T01:47:08;163690.94;;;-0.22;86.14
45255;BME280;30989;52.078;21.014;2023-04-03T01:49:34;163684.31;;;-0.25;86.29
45255;BME280;30989;52.078;21.014;2023-04-03T01:52:00;163688.28;;;-0.23;86.09
45255;BME280;30989;52.078;21.014;2023-04-03T01:54:26;163669.69;;;-0.30;85.65
45255;BME280;30989;52.078;21.014;2023-04-03T01:56:51;163672.34;;;-0.29;86.01
45255;BME280;30989;52.078;21.014;2023-04-03T01:59:18;163655.06;;;-0.36;86.12
45255;BME280;30989;52.078;21.014;2023-04-03T02:01:44;163655.06;;;-0.36;85.62
45255;BME280;30989;52.078;21.014;2023-04-03T02:04:11;163653.72;;;-0.37;85.85
45255;BME280;30989;52.078;21.014;2023-04-03T02:06:37;163640.44;;;-0.42;86.51
45255;BME280;30989;52.078;21.014;2023-04-03T02:09:03;163636.44;;;-0.43;86.13
45255;BME280;30989;52.078;21.014;2023-04-03T02:11:29;163625.81;;;-0.47;85.95
45255;BME280;30989;52.078;21.014;2023-04-03T02:13:55;163609.88;;;-0.53;86.45
45255;BME280;30989;52.078;21.014;2023-04-03T02:16:21;163612.53;;;-0.52;86.63
45255;BME280;30989;52.078;21.014;2023-04-03T02:18:48;163603.22;;;-0.56;86.19
45255;BME280;30989;52.078;21.014;2023-04-03T02:21:14;163587.28;;;-0.62;86.22
45255;BME280;30989;52.078;21.014;2023-04-03T02:23:39;163568.66;;;-0.69;86.27
45255;BME280;30989;52.078;21.014;2023-04-03T02:26:10;163584.63;;;-0.63;86.84
45255;BME280;30989;52.078;21.014;2023-04-03T02:28:37;163577.97;;;-0.66;86.89
45255;BME280;30989;52.078;21.014;2023-04-03T02:31:03;163563.34;;;-0.71;86.35
45255;BME280;30989;52.078;21.014;2023-04-03T02:33:30;163558.03;;;-0.73;86.57
45255;BME280;30989;52.078;21.014;2023-04-03T02:35:56;163554.03;;;-0.75;86.78
45255;BME280;30989;52.078;21.014;2023-04-03T02:38:23;163542.09;;;-0.79;86.50
45255;BME280;30989;52.078;21.014;2023-04-03T02:40:49;163532.78;;;-0.83;87.13
45255;BME280;30989;52.078;21.014;2023-04-03T02:43:16;163528.78;;;-0.84;86.57
45255;BME280;30989;52.078;21.014;2023-04-03T02:45:42;163515.50;;;-0.89;86.43
45255;BME280;30989;52.078;21.014;2023-04-03T02:48:08;163519.50;;;-0.88;86.98
45255;BME280;30989;52.078;21.014;2023-04-03T02:50:34;163502.22;;;-0.94;87.18
45255;BME280;30989;52.078;21.014;2023-04-03T02:52:59;163495.56;;;-0.97;87.37
45255;BME280;30989;52.078;21.014;2023-04-03T02:55:25;163495.56;;;-0.97;87.07
45255;BME280;30989;52.078;21.014;2023-04-03T02:57:54;163491.59;;;-0.99;87.55
45255;BME280;30989;52.078;21.014;2023-04-03T03:00:20;163480.97;;;-1.03;87.58
45255;BME280;30989;52.078;21.014;2023-04-03T03:02:45;163470.34;;;-1.07;87.62
45255;BME280;30989;52.078;21.014;2023-04-03T03:05:11;163473.00;;;-1.06;87.43
45255;BME280;30989;52.078;21.014;2023-04-03T03:07:36;163467.69;;;-1.08;87.35
45255;BME280;30989;52.078;21.014;2023-04-03T03:10:02;163458.38;;;-1.11;87.61
45255;BME280;30989;52.078;21.014;2023-04-03T03:12:27;163454.38;;;-1.13;87.26
45255;BME280;30989;52.078;21.014;2023-04-03T03:14:54;163445.09;;;-1.16;87.65
45255;BME280;30989;52.078;21.014;2023-04-03T03:17:20;163429.16;;;-1.22;87.59
45255;BME280;30989;52.078;21.014;2023-04-03T03:19:45;163422.50;;;-1.25;87.91
45255;BME280;30989;52.078;21.014;2023-04-03T03:22:11;163430.47;;;-1.22;88.17
45255;BME280;30989;52.078;21.014;2023-04-03T03:24:36;163423.84;;;-1.24;88.14
45255;BME280;30989;52.078;21.014;2023-04-03T03:27:02;163414.53;;;-1.28;87.63
45255;BME280;30989;52.078;21.014;2023-04-03T03:29:27;163411.88;;;-1.29;88.06
45255;BME280;30989;52.078;21.014;2023-04-03T03:31:53;163405.25;;;-1.32;88.06
45255;BME280;30989;52.078;21.014;2023-04-03T03:34:19;163399.94;;;-1.34;88.22
45255;BME280;30989;52.078;21.014;2023-04-03T03:36:44;163398.59;;;-1.34;88.36
45255;BME280;30989;52.078;21.014;2023-04-03T03:39:10;163395.94;;;-1.35;88.71
45255;BME280;30989;52.078;21.014;2023-04-03T03:41:36;163380.00;;;-1.41;88.79
45255;BME280;30989;52.078;21.014;2023-04-03T03:44:02;163372.03;;;-1.44;88.62
45255;BME280;30989;52.078;21.014;2023-04-03T03:46:30;163370.72;;;-1.45;88.79
45255;BME280;30989;52.078;21.014;2023-04-03T03:48:55;163369.38;;;-1.45;88.47
45255;BME280;30989;52.078;21.014;2023-04-03T03:51:21;163368.06;;;-1.46;88.52
45255;BME280;30989;52.078;21.014;2023-04-03T03:53:46;163360.09;;;-1.49;88.97
45255;BME280;30989;52.078;21.014;2023-04-03T03:56:15;163337.50;;;-1.57;89.12
45255;BME280;30989;52.078;21.014;2023-04-03T03:58:41;163349.47;;;-1.53;89.03
45255;BME280;30989;52.078;21.014;2023-04-03T04:01:07;163340.16;;;-1.56;89.10
45255;BME280;30989;52.078;21.014;2023-04-03T04:03:38;163332.19;;;-1.59;88.94
45255;BME280;30989;52.078;21.014;2023-04-03T04:06:05;163326.88;;;-1.62;89.37
45255;BME280;30989;52.078;21.014;2023-04-03T04:08:31;163321.56;;;-1.64;89.56
45255;BME280;30989;52.078;21.014;2023-04-03T04:10:56;163332.19;;;-1.59;89.41
45255;BME280;30989;52.078;21.014;2023-04-03T04:13:22;163328.22;;;-1.61;89.56
45255;BME280;30989;52.078;21.014;2023-04-03T04:15:48;163321.56;;;-1.64;89.60
45255;BME280;30989;52.078;21.014;2023-04-03T04:18:15;163321.56;;;-1.64;89.57
45255;BME280;30989;52.078;21.014;2023-04-03T04:20:45;163320.25;;;-1.64;89.61
45255;BME280;30989;52.078;21.014;2023-04-03T04:23:11;163318.91;;;-1.65;89.48
45255;BME280;30989;52.078;21.014;2023-04-03T04:25:37;163320.25;;;-1.64;89.79
45255;BME280;30989;52.078;21.014;2023-04-03T04:28:04;163314.94;;;-1.66;89.65
45255;BME280;30989;52.078;21.014;2023-04-03T04:30:30;163285.72;;;-1.77;90.04
45255;BME280;30989;52.078;21.014;2023-04-03T04:32:57;163300.31;;;-1.72;89.63
45255;BME280;30989;52.078;21.014;2023-04-03T04:35:23;163309.63;;;-1.68;88.99
45255;BME280;30989;52.078;21.014;2023-04-03T04:37:50;163305.63;;;-1.70;89.21
45255;BME280;30989;52.078;21.014;2023-04-03T04:40:16;163297.66;;;-1.73;89.94
45255;BME280;30989;52.078;21.014;2023-04-03T04:42:42;163309.63;;;-1.68;90.28
45255;BME280;30989;52.078;21.014;2023-04-03T04:45:09;163283.06;;;-1.78;89.92
45255;BME280;30989;52.078;21.014;2023-04-03T04:47:36;163302.97;;;-1.71;89.80
45255;BME280;30989;52.078;21.014;2023-04-03T04:50:02;163293.69;;;-1.74;89.94
45255;BME280;30989;52.078;21.014;2023-04-03T04:52:30;163276.41;;;-1.81;90.14
45255;BME280;30989;52.078;21.014;2023-04-03T04:54:56;163308.28;;;-1.69;89.92
45255;BME280;30989;52.078;21.014;2023-04-03T04:57:21;163309.63;;;-1.68;89.48
45255;BME280;30989;52.078;21.014;2023-04-03T04:59:48;163310.94;;;-1.68;89.94
45255;BME280;30989;52.078;21.014;2023-04-03T05:02:13;163316.25;;;-1.66;90.17
45255;BME280;30989;52.078;21.014;2023-04-03T05:04:41;163308.28;;;-1.69;90.15
45255;BME280;30989;52.078;21.014;2023-04-03T05:07:13;163322.91;;;-1.63;89.36
45255;BME280;30989;52.078;21.014;2023-04-03T05:09:38;163318.91;;;-1.65;89.64
45255;BME280;30989;52.078;21.014;2023-04-03T05:12:06;163316.25;;;-1.66;90.10
45255;BME280;30989;52.078;21.014;2023-04-03T05:14:38;163332.19;;;-1.59;90.25
45255;BME280;30989;52.078;21.014;2023-04-03T05:17:07;163305.63;;;-1.70;90.51
45255;BME280;30989;52.078;21.014;2023-04-03T05:19:35;163332.19;;;-1.59;90.08
45255;BME280;30989;52.078;21.014;2023-04-03T05:22:02;163326.88;;;-1.62;90.02
45255;BME280;30989;52.078;21.014;2023-04-03T05:24:28;163330.88;;;-1.60;90.27
45255;BME280;30989;52.078;21.014;2023-04-03T05:26:54;163332.19;;;-1.59;90.63
45255;BME280;30989;52.078;21.014;2023-04-03T05:29:20;163332.19;;;-1.59;90.35
45255;BME280;30989;52.078;21.014;2023-04-03T05:31:49;163340.16;;;-1.56;90.05
45255;BME280;30989;52.078;21.014;2023-04-03T05:34:16;163348.13;;;-1.53;89.92
45255;BME280;30989;52.078;21.014;2023-04-03T05:36:42;163349.47;;;-1.53;89.84
45255;BME280;30989;52.078;21.014;2023-04-03T05:39:09;163370.72;;;-1.45;89.88
45255;BME280;30989;52.078;21.014;2023-04-03T05:41:38;163382.66;;;-1.40;89.96
45255;BME280;30989;52.078;21.014;2023-04-03T05:44:03;163395.94;;;-1.35;89.37
45255;BME280;30989;52.078;21.014;2023-04-03T05:46:29;163394.63;;;-1.36;89.81
45255;BME280;30989;52.078;21.014;2023-04-03T05:48:57;163421.19;;;-1.25;89.62
45255;BME280;30989;52.078;21.014;2023-04-03T05:51:30;163437.13;;;-1.19;89.25
45255;BME280;30989;52.078;21.014;2023-04-03T05:54:34;163465.03;;;-1.09;89.67
45255;BME280;30989;52.078;21.014;2023-04-03T05:57:15;163482.28;;;-1.02;89.47
45255;BME280;30989;52.078;21.014;2023-04-03T05:59:44;163492.91;;;-0.98;88.71
45255;BME280;30989;52.078;21.014;2023-04-03T06:02:14;163520.81;;;-0.87;89.05
45255;BME280;30989;52.078;21.014;2023-04-03T06:04:40;163526.16;;;-0.85;88.06
45255;BME280;30989;52.078;21.014;2023-04-03T06:07:06;163554.03;;;-0.75;88.50
45255;BME280;30989;52.078;21.014;2023-04-03T06:09:33;163571.31;;;-0.68;88.07
45255;BME280;30989;52.078;21.014;2023-04-03T06:11:58;163581.97;;;-0.64;87.84
45255;BME280;30989;52.078;21.014;2023-04-03T06:14:25;163613.84;;;-0.52;87.38
45255;BME280;30989;52.078;21.014;2023-04-03T06:16:51;163627.16;;;-0.47;87.67
45255;BME280;30989;52.078;21.014;2023-04-03T06:19:17;163648.41;;;-0.39;86.30
45255;BME280;30989;52.078;21.014;2023-04-03T06:21:47;163684.31;;;-0.25;87.05
45255;BME280;30989;52.078;21.014;2023-04-03T06:24:15;163685.63;;;-0.24;86.01
45255;BME280;30989;52.078;21.014;2023-04-03T06:26:41;163704.25;;;-0.17;85.13
45255;BME280;30989;52.078;21.014;2023-04-03T06:29:06;163717.53;;;-0.12;86.24
45255;BME280;30989;52.078;21.014;2023-04-03T06:31:32;163740.13;;;-0.04;85.83
45255;BME280;30989;52.078;21.014;2023-04-03T06:33:57;163749.50;;;0.00;84.42
45255;BME280;30989;52.078;21.014;2023-04-03T06:36:23;163754.81;;;0.02;84.96
45255;BME280;30989;52.078;21.014;2023-04-03T06:38:48;163757.47;;;0.03;83.88
45255;BME280;30989;52.078;21.014;2023-04-03T06:41:14;163781.41;;;0.12;84.89
45255;BME280;30989;52.078;21.014;2023-04-03T06:43:42;163776.09;;;0.10;83.22
45255;BME280;30989;52.078;21.014;2023-04-03T06:46:16;163789.38;;;0.15;83.87
45255;BME280;30989;52.078;21.014;2023-04-03T06:48:42;163796.03;;;0.18;83.45
45255;BME280;30989;52.078;21.014;2023-04-03T06:51:28;163798.69;;;0.19;82.70
45255;BME280;30989;52.078;21.014;2023-04-03T06:53:55;163800.03;;;0.19;84.05
45255;BME280;30989;52.078;21.014;2023-04-03T06:56:21;163808.00;;;0.22;83.49
45255;BME280;30989;52.078;21.014;2023-04-03T06:58:47;163833.28;;;0.32;83.46
45255;BME280;30989;52.078;21.014;2023-04-03T07:01:15;163859.88;;;0.42;83.80
45255;BME280;30989;52.078;21.014;2023-04-03T07:03:41;163874.50;;;0.48;83.47
45255;BME280;30989;52.078;21.014;2023-04-03T07:06:11;163886.47;;;0.52;83.50
45255;BME280;30989;52.078;21.014;2023-04-03T07:08:38;163887.81;;;0.53;82.15
45255;BME280;30989;52.078;21.014;2023-04-03T07:11:04;163869.19;;;0.46;81.46
45255;BME280;30989;52.078;21.014;2023-04-03T07:13:30;163906.44;;;0.60;81.50
45255;BME280;30989;52.078;21.014;2023-04-03T07:15:56;163923.72;;;0.67;82.31
45255;BME280;30989;52.078;21.014;2023-04-03T07:18:22;163959.66;;;0.80;81.89
45255;BME280;30989;52.078;21.014;2023-04-03T07:20:48;163979.59;;;0.88;81.29
45255;BME280;30989;52.078;21.014;2023-04-03T07:23:14;164002.22;;;0.96;80.05
45255;BME280;30989;52.078;21.014;2023-04-03T07:25:47;164014.19;;;1.01;81.02
45255;BME280;30989;52.078;21.014;2023-04-03T07:28:14;164039.47;;;1.11;81.36
45255;BME280;30989;52.078;21.014;2023-04-03T07:30:48;164056.78;;;1.17;79.45
45255;BME280;30989;52.078;21.014;2023-04-03T07:33:14;164087.38;;;1.29;80.63
45255;BME280;30989;52.078;21.014;2023-04-03T07:35:41;164106.03;;;1.36;78.10
45255;BME280;30989;52.078;21.014;2023-04-03T07:38:07;164108.69;;;1.37;77.67
45255;BME280;30989;52.078;21.014;2023-04-03T07:40:33;164120.66;;;1.42;78.33
45255;BME280;30989;52.078;21.014;2023-04-03T07:42:58;164122.00;;;1.42;76.98
45255;BME280;30989;52.078;21.014;2023-04-03T07:45:25;164115.34;;;1.40;77.27
45255;BME280;30989;52.078;21.014;2023-04-03T07:47:51;164132.63;;;1.46;77.64
45255;BME280;30989;52.078;21.014;2023-04-03T07:50:17;164163.25;;;1.58;77.28
45255;BME280;30989;52.078;21.014;2023-04-03T07:52:43;164191.22;;;1.69;76.78
45255;BME280;30989;52.078;21.014;2023-04-03T07:55:08;164192.53;;;1.69;74.63
45255;BME280;30989;52.078;21.014;2023-04-03T07:57:34;164197.88;;;1.71;74.47
45255;BME280;30989;52.078;21.014;2023-04-03T07:59:59;164215.19;;;1.78;74.78
45255;BME280;30989;52.078;21.014;2023-04-03T08:02:25;164236.47;;;1.86;75.38
45255;BME280;30989;52.078;21.014;2023-04-03T08:04:50;164260.44;;;1.95;74.46
45255;BME280;30989;52.078;21.014;2023-04-03T08:07:16;164279.09;;;2.02;72.15
45255;BME280;30989;52.078;21.014;2023-04-03T08:09:41;164285.75;;;2.05;71.73
45255;BME280;30989;52.078;21.014;2023-04-03T08:12:07;164279.09;;;2.02;72.43
45255;BME280;30989;52.078;21.014;2023-04-03T08:14:32;164284.41;;;2.04;71.75
45255;BME280;30989;52.078;21.014;2023-04-03T08:17:00;164289.75;;;2.06;72.48
45255;BME280;30989;52.078;21.014;2023-04-03T08:19:26;164295.06;;;2.08;70.58
45255;BME280;30989;52.078;21.014;2023-04-03T08:21:53;164277.75;;;2.02;70.09
45255;BME280;30989;52.078;21.014;2023-04-03T08:24:19;164285.75;;;2.05;67.25
45255;BME280;30989;52.078;21.014;2023-04-03T08:26:45;164284.41;;;2.04;66.76
45255;BME280;30989;52.078;21.014;2023-04-03T08:29:10;164297.72;;;2.09;68.32
45255;BME280;30989;52.078;21.014;2023-04-03T08:31:36;164325.69;;;2.20;68.49
45255;BME280;30989;52.078;21.014;2023-04-03T08:34:01;164321.69;;;2.18;68.49
45255;BME280;30989;52.078;21.014;2023-04-03T08:36:28;164308.38;;;2.13;69.43
45255;BME280;30989;52.078;21.014;2023-04-03T08:38:55;164344.34;;;2.27;70.30
45255;BME280;30989;52.078;21.014;2023-04-03T08:41:37;164380.31;;;2.41;64.03
45255;BME280;30989;52.078;21.014;2023-04-03T08:50:01;164401.63;;;2.49;63.92
45255;BME280;30989;52.078;21.014;2023-04-03T08:52:36;164456.22;;;2.70;64.54
45255;BME280;30989;52.078;21.014;2023-04-03T08:55:25;164468.22;;;2.74;62.93
45255;BME280;30989;52.078;21.014;2023-04-03T08:58:28;164429.59;;;2.59;63.06
45255;BME280;30989;52.078;21.014;2023-04-03T09:00:59;164381.63;;;2.41;60.27
45255;BME280;30989;52.078;21.014;2023-04-03T09:03:29;164372.31;;;2.38;60.08
45255;BME280;30989;52.078;21.014;2023-04-03T09:08:39;164490.88;;;2.83;63.02
45255;BME280;30989;52.078;21.014;2023-04-03T09:11:26;164598.81;;;3.24;64.29
45255;BME280;30989;52.078;21.014;2023-04-03T09:14:01;164721.44;;;3.71;65.66
45255;BME280;30989;52.078;21.014;2023-04-03T09:16:52;164862.78;;;4.25;63.20
45255;BME280;30989;52.078;21.014;2023-04-03T09:20:09;164888.13;;;4.34;60.08
45255;BME280;30989;52.078;21.014;2023-04-03T09:22:27;164898.81;;;4.38;59.23
45255;BME280;30989;52.078;21.014;2023-04-03T09:25:11;164870.78;;;4.28;57.94
45255;BME280;30989;52.078;21.014;2023-04-03T09:27:38;164830.78;;;4.12;56.36
45255;BME280;30989;52.078;21.014;2023-04-03T09:30:04;164814.78;;;4.06;57.88
45255;BME280;30989;52.078;21.014;2023-04-03T09:32:32;164798.78;;;4.00;56.33
45255;BME280;30989;52.078;21.014;2023-04-03T09:35:04;164796.09;;;3.99;57.01
45255;BME280;30989;52.078;21.014;2023-04-03T09:37:42;164813.44;;;4.06;56.75
45255;BME280;30989;52.078;21.014;2023-04-03T09:42:54;164789.44;;;3.97;54.33
45255;BME280;30989;52.078;21.014;2023-04-03T09:48:04;164785.44;;;3.95;56.14
45255;BME280;30989;52.078;21.014;2023-04-03T09:50:32;164824.13;;;4.10;55.00
45255;BME280;30989;52.078;21.014;2023-04-03T09:53:05;164846.78;;;4.18;56.71
45255;BME280;30989;52.078;21.014;2023-04-03T09:55:32;164860.13;;;4.24;56.97
45255;BME280;30989;52.078;21.014;2023-04-03T09:58:04;164876.13;;;4.30;54.75
45255;BME280;30989;52.078;21.014;2023-04-03T10:00:39;164905.47;;;4.41;55.04
45255;BME280;30989;52.078;21.014;2023-04-03T10:03:08;164906.81;;;4.41;55.94
45255;BME280;30989;52.078;21.014;2023-04-03T10:05:48;164913.47;;;4.44;56.16
45255;BME280;30989;52.078;21.014;2023-04-03T10:10:46;164982.84;;;4.70;56.26
45255;BME280;30989;52.078;21.014;2023-04-03T10:13:14;165081.59;;;5.08;56.63
45255;BME280;30989;52.078;21.014;2023-04-03T10:15:50;165120.34;;;5.23;54.00
45255;BME280;30989;52.078;21.014;2023-04-03T10:20:48;165040.22;;;4.92;55.34
45255;BME280;30989;52.078;21.014;2023-04-03T10:23:24;165026.88;;;4.87;53.74
45255;BME280;30989;52.078;21.014;2023-04-03T10:26:27;165010.84;;;4.81;55.96
45255;BME280;30989;52.078;21.014;2023-04-03T10:29:04;165050.88;;;4.96;55.27
45255;BME280;30989;52.078;21.014;2023-04-03T10:31:55;165163.03;;;5.39;54.03
45255;BME280;30989;52.078;21.014;2023-04-03T10:34:31;165173.72;;;5.43;53.05
45255;BME280;30989;52.078;21.014;2023-04-03T10:48:29;165205.75;;;5.55;52.29
45255;BME280;30989;52.078;21.014;2023-04-03T10:51:19;165292.53;;;5.88;52.36
45255;BME280;30989;52.078;21.014;2023-04-03T10:54:05;165304.59;;;5.93;51.37
45255;BME280;30989;52.078;21.014;2023-04-03T10:56:40;165287.19;;;5.86;52.44
45255;BME280;30989;52.078;21.014;2023-04-03T10:59:35;165307.28;;;5.94;51.63
45255;BME280;30989;52.078;21.014;2023-04-03T11:07:38;165613.16;;;7.10;48.48
45255;BME280;30989;52.078;21.014;2023-04-03T11:10:22;165764.19;;;7.67;47.76
45255;BME280;30989;52.078;21.014;2023-04-03T11:12:54;165896.56;;;8.18;45.03
45255;BME280;30989;52.078;21.014;2023-04-03T11:15:24;165885.88;;;8.14;43.49
45255;BME280;30989;52.078;21.014;2023-04-03T11:18:12;166004.94;;;8.59;47.18
45255;BME280;30989;52.078;21.014;2023-04-03T11:20:43;166165.50;;;9.20;45.24
45255;BME280;30989;52.078;21.014;2023-04-03T11:23:26;166196.28;;;9.31;44.40
45255;BME280;30989;52.078;21.014;2023-04-03T11:25:55;166081.19;;;8.88;44.07
45255;BME280;30989;52.078;21.014;2023-04-03T11:28:22;165971.50;;;8.46;44.47
45255;BME280;30989;52.078;21.014;2023-04-03T11:31:12;165813.66;;;7.86;45.83
45255;BME280;30989;52.078;21.014;2023-04-03T11:34:03;165595.78;;;7.03;45.37
45255;BME280;30989;52.078;21.014;2023-04-03T11:36:34;165422.13;;;6.37;46.70
45255;BME280;30989;52.078;21.014;2023-04-03T11:39:20;165329.97;;;6.02;46.91
45255;BME280;30989;52.078;21.014;2023-04-03T11:41:48;165257.81;;;5.75;47.16
45255;BME280;30989;52.078;21.014;2023-04-03T11:44:40;165249.81;;;5.72;47.54
45255;BME280;30989;52.078;21.014;2023-04-03T11:47:07;165232.44;;;5.65;46.05
45255;BME280;30989;52.078;21.014;2023-04-03T12:05:55;166022.34;;;8.65;49.21
45255;BME280;30989;52.078;21.014;2023-04-03T12:14:03;166243.13;;;9.49;45.21
45255;BME280;30989;52.078;21.014;2023-04-03T12:26:39;165912.63;;;8.24;43.74
45255;BME280;30989;52.078;21.014;2023-04-03T12:29:17;165987.56;;;8.52;44.50
45255;BME280;30989;52.078;21.014;2023-04-03T12:37:38;165887.22;;;8.14;41.24
45255;BME280;30989;52.078;21.014;2023-04-03T12:45:47;165674.63;;;7.33;42.60
45255;BME280;30989;52.078;21.014;2023-04-03T12:48:17;165709.38;;;7.47;42.59
45255;BME280;30989;52.078;21.014;2023-04-03T12:50:46;165706.72;;;7.46;42.19
45255;BME280;30989;52.078;21.014;2023-04-03T12:53:16;165720.09;;;7.51;42.73
45255;BME280;30989;52.078;21.014;2023-04-03T12:55:43;165718.75;;;7.50;42.74
45255;BME280;30989;52.078;21.014;2023-04-03T12:58:23;165693.34;;;7.40;42.57
45255;BME280;30989;52.078;21.014;2023-04-03T13:00:59;165669.28;;;7.31;44.34
45255;BME280;30989;52.078;21.014;2023-04-03T13:03:26;165680.00;;;7.35;43.90
45255;BME280;30989;52.078;21.014;2023-04-03T13:05:55;165797.63;;;7.80;45.32
45255;BME280;30989;52.078;21.014;2023-04-03T13:08:22;165877.84;;;8.11;43.55
45255;BME280;30989;52.078;21.014;2023-04-03T13:10:55;165896.56;;;8.18;41.21
45255;BME280;30989;52.078;21.014;2023-04-03T13:13:21;165797.63;;;7.80;42.36
45255;BME280;30989;52.078;21.014;2023-04-03T13:15:49;165693.34;;;7.40;43.45
45255;BME280;30989;52.078;21.014;2023-04-03T13:18:35;165633.22;;;7.18;43.66
45255;BME280;30989;52.078;21.014;2023-04-03T13:23:30;165657.25;;;7.27;44.02
45255;BME280;30989;52.078;21.014;2023-04-03T13:25:57;165688.00;;;7.38;44.25
45255;BME280;30989;52.078;21.014;2023-04-03T13:28:26;165744.16;;;7.60;45.03
45255;BME280;30989;52.078;21.014;2023-04-03T13:31:07;165730.78;;;7.55;44.34
45255;BME280;30989;52.078;21.014;2023-04-03T13:33:36;165741.47;;;7.59;44.51
45255;BME280;30989;52.078;21.014;2023-04-03T13:36:36;165843.06;;;7.97;40.92
45255;BME280;30989;52.078;21.014;2023-04-03T13:41:41;166185.56;;;9.27;41.59
45255;BME280;30989;52.078;21.014;2023-04-03T13:49:36;166172.19;;;9.22;40.24
45255;BME280;30989;52.078;21.014;2023-04-03T13:54:52;165943.44;;;8.35;41.25
45255;BME280;30989;52.078;21.014;2023-04-03T13:57:18;165917.97;;;8.26;41.72
45255;BME280;30989;52.078;21.014;2023-04-03T13:59:43;165885.88;;;8.14;42.32
45255;BME280;30989;52.078;21.014;2023-04-03T14:02:17;165856.44;;;8.02;42.66
45255;BME280;30989;52.078;21.014;2023-04-03T14:07:08;165758.84;;;7.65;42.98
45255;BME280;30989;52.078;21.014;2023-04-03T14:09:34;165728.09;;;7.54;43.24
45255;BME280;30989;52.078;21.014;2023-04-03T14:12:05;165700.03;;;7.43;43.14
45255;BME280;30989;52.078;21.014;2023-04-03T14:14:34;165597.13;;;7.04;42.27
45255;BME280;30989;52.078;21.014;2023-04-03T14:17:03;165494.25;;;6.65;43.37
45255;BME280;30989;52.078;21.014;2023-04-03T14:19:36;165432.81;;;6.41;43.55
45255;BME280;30989;52.078;21.014;2023-04-03T14:22:13;165364.69;;;6.16;44.05
45255;BME280;30989;52.078;21.014;2023-04-03T14:24:38;165339.31;;;6.06;44.17
45255;BME280;30989;52.078;21.014;2023-04-03T14:27:21;165340.66;;;6.06;45.12
45255;BME280;30989;52.078;21.014;2023-04-03T14:29:48;165346.00;;;6.08;44.54
45255;BME280;30989;52.078;21.014;2023-04-03T14:32:15;165340.66;;;6.06;45.09
45255;BME280;30989;52.078;21.014;2023-04-03T14:34:43;165308.59;;;5.94;45.03
45255;BME280;30989;52.078;21.014;2023-04-03T14:37:17;165281.84;;;5.84;44.21
45255;BME280;30989;52.078;21.014;2023-04-03T14:39:44;165272.50;;;5.80;45.32